sensor_id;sensor_type;location;lat;lon;timestamp;temperature;humidity
21298;DHT22;10808;48.010;11.326;2024-02-21T00:01:04;4.70;99.90
21298;DHT22;10808;48.010;11.326;2024-02-21T00:03:30;4.70;99.90
21298;DHT22;10808;48.010;11.326;2024-02-21T00:05:56;4.70;99.90
21298;DHT22;10808;48.010;11.326;2024-02-21T00:08:22;4.70;99.90
21298;DHT22;10808;48.010;11.326;2024-02-21T00:10:48;4.70;99.90
21298;DHT22;10808;48.010;11.326;2024-02-21T00:13:15;4.80;99.90
21298;DHT22;10808;48.010;11.326;2024-02-21T00:15:41;4.80;99.90
21298;DHT22;10808;48.010;11.326;2024-02-21T00:18:07;4.90;99.90
21298;DHT22;10808;48.010;11.326;2024-02-21T00:20:33;4.90;99.90
21298;DHT22;10808;48.010;11.326;2024-02-21T00:22:59;4.90;99.90
21298;DHT22;10808;48.010;11.326;2024-02-21T00:25:25;4.90;99.90
21298;DHT22;10808;48.010;11.326;2024-02-21T00:27:51;4.90;99.90
21298;DHT22;10808;48.010;11.326;2024-02-21T00:30:17;5.00;99.90
21298;DHT22;10808;48.010;11.326;2024-02-21T00:32:43;5.00;99.90
21298;DHT22;10808;48.010;11.326;2024-02-21T00:35:09;5.10;99.90
21298;DHT22;10808;48.010;11.326;2024-02-21T00:37:35;5.00;99.90
21298;DHT22;10808;48.010;11.326;2024-02-21T00:40:01;5.00;99.90
21298;DHT22;10808;48.010;11.326;2024-02-21T00:42:27;5.00;99.90
21298;DHT22;10808;48.010;11.326;2024-02-21T00:44:53;5.00;99.90
21298;DHT22;10808;48.010;11.326;2024-02-21T00:47:19;5.00;99.90
21298;DHT22;10808;48.010;11.326;2024-02-21T00:49:45;5.00;99.90
21298;DHT22;10808;48.010;11.326;2024-02-21T00:52:11;5.00;99.90
21298;DHT22;10808;48.010;11.326;2024-02-21T00:54:37;5.00;99.90
21298;DHT22;10808;48.010;11.326;2024-02-21T00:57:03;5.10;99.90
21298;DHT22;10808;48.010;11.326;2024-02-21T00:59:29;5.00;99.90
21298;DHT22;10808;48.010;11.326;2024-02-21T01:01:55;5.00;99.90
21298;DHT22;10808;48.010;11.326;2024-02-21T01:04:21;5.00;99.90
21298;DHT22;10808;48.010;11.326;2024-02-21T01:06:50;5.00;99.90
21298;DHT22;10808;48.010;11.326;2024-02-21T01:09:16;5.10;99.90
21298;DHT22;10808;48.010;11.326;2024-02-21T01:11:42;5.00;99.90
21298;DHT22;10808;48.010;11.326;2024-02-21T01:14:08;5.00;99.90
21298;DHT22;10808;48.010;11.326;2024-02-21T01:16:34;5.00;99.90
21298;DHT22;10808;48.010;11.326;2024-02-21T01:19:00;5.00;99.90
21298;DHT22;10808;48.010;11.326;2024-02-21T01:21:26;5.00;99.90
21298;DHT22;10808;48.010;11.326;2024-02-21T01:23:52;5.00;99.90
21298;DHT22;10808;48.010;11.326;2024-02-21T01:26:18;5.00;99.90
21298;DHT22;10808;48.010;11.326;2024-02-21T01:28:44;5.00;99.90
21298;DHT22;10808;48.010;11.326;2024-02-21T01:31:10;5.10;99.90
21298;DHT22;10808;48.010;11.326;2024-02-21T01:33:36;5.10;99.90
21298;DHT22;10808;48.010;11.326;2024-02-21T01:36:05;5.10;99.90
21298;DHT22;10808;48.010;11.326;2024-02-21T01:38:34;5.10;99.90
21298;DHT22;10808;48.010;11.326;2024-02-21T01:41:00;5.10;99.90
21298;DHT22;10808;48.010;11.326;2024-02-21T01:43:26;5.10;99.90
21298;DHT22;10808;48.010;11.326;2024-02-21T01:45:54;5.10;99.90
21298;DHT22;10808;48.010;11.326;2024-02-21T01:48:24;5.20;99.90
21298;DHT22;10808;48.010;11.326;2024-02-21T01:50:52;5.20;99.90
21298;DHT22;10808;48.010;11.326;2024-02-21T01:53:23;5.20;99.90
21298;DHT22;10808;48.010;11.326;2024-02-21T01:55:51;5.20;99.90
21298;DHT22;10808;48.010;11.326;2024-02-21T01:58:18;5.20;99.90
21298;DHT22;10808;48.010;11.326;2024-02-21T02:00:46;5.30;99.90
21298;DHT22;10808;48.010;11.326;2024-02-21T02:03:14;5.30;99.90
21298;DHT22;10808;48.010;11.326;2024-02-21T02:05:47;5.20;99.90
21298;DHT22;10808;48.010;11.326;2024-02-21T02:08:18;5.20;99.90
21298;DHT22;10808;48.010;11.326;2024-02-21T02:10:45;5.20;99.90
21298;DHT22;10808;48.010;11.326;2024-02-21T02:13:11;5.20;99.90
21298;DHT22;10808;48.010;11.326;2024-02-21T02:18:05;5.20;99.90
21298;DHT22;10808;48.010;11.326;2024-02-21T02:20:31;5.20;99.90
21298;DHT22;10808;48.010;11.326;2024-02-21T02:22:59;5.20;99.90
21298;DHT22;10808;48.010;11.326;2024-02-21T02:25:26;5.20;99.90
21298;DHT22;10808;48.010;11.326;2024-02-21T02:27:53;5.30;99.90
21298;DHT22;10808;48.010;11.326;2024-02-21T02:30:19;5.30;99.90
21298;DHT22;10808;48.010;11.326;2024-02-21T02:32:45;5.30;99.90
21298;DHT22;10808;48.010;11.326;2024-02-21T02:35:14;5.30;99.90
21298;DHT22;10808;48.010;11.326;2024-02-21T02:37:47;5.30;99.90
21298;DHT22;10808;48.010;11.326;2024-02-21T02:40:13;5.30;99.90
21298;DHT22;10808;48.010;11.326;2024-02-21T02:42:39;5.30;99.90
21298;DHT22;10808;48.010;11.326;2024-02-21T02:45:06;5.30;99.90
21298;DHT22;10808;48.010;11.326;2024-02-21T02:47:32;5.30;99.90
21298;DHT22;10808;48.010;11.326;2024-02-21T02:50:00;5.30;99.90
21298;DHT22;10808;48.010;11.326;2024-02-21T02:52:27;5.30;99.90
21298;DHT22;10808;48.010;11.326;2024-02-21T02:54:53;5.30;99.90
21298;DHT22;10808;48.010;11.326;2024-02-21T02:57:21;5.30;99.90
21298;DHT22;10808;48.010;11.326;2024-02-21T02:59:50;5.20;99.90
21298;DHT22;10808;48.010;11.326;2024-02-21T03:02:17;5.20;99.90
21298;DHT22;10808;48.010;11.326;2024-02-21T03:04:44;5.20;99.90
21298;DHT22;10808;48.010;11.326;2024-02-21T03:07:10;5.20;99.90
21298;DHT22;10808;48.010;11.326;2024-02-21T03:09:40;5.20;99.90
21298;DHT22;10808;48.010;11.326;2024-02-21T03:12:06;5.20;99.90
21298;DHT22;10808;48.010;11.326;2024-02-21T03:14:33;5.20;99.90
21298;DHT22;10808;48.010;11.326;2024-02-21T03:16:59;5.20;99.90
21298;DHT22;10808;48.010;11.326;2024-02-21T03:19:25;5.20;99.90
21298;DHT22;10808;48.010;11.326;2024-02-21T03:21:52;5.20;99.90
21298;DHT22;10808;48.010;11.326;2024-02-21T03:24:18;5.20;99.90
21298;DHT22;10808;48.010;11.326;2024-02-21T03:26:45;5.20;99.90
21298;DHT22;10808;48.010;11.326;2024-02-21T03:29:14;5.20;99.90
21298;DHT22;10808;48.010;11.326;2024-02-21T03:31:41;5.20;99.90
21298;DHT22;10808;48.010;11.326;2024-02-21T03:34:07;5.20;99.90
21298;DHT22;10808;48.010;11.326;2024-02-21T03:36:33;5.20;99.90
21298;DHT22;10808;48.010;11.326;2024-02-21T03:38:59;5.20;99.90
21298;DHT22;10808;48.010;11.326;2024-02-21T03:41:27;5.20;99.90
21298;DHT22;10808;48.010;11.326;2024-02-21T03:43:53;5.20;99.90
21298;DHT22;10808;48.010;11.326;2024-02-21T03:46:19;5.20;99.90
21298;DHT22;10808;48.010;11.326;2024-02-21T03:48:45;5.20;99.90
21298;DHT22;10808;48.010;11.326;2024-02-21T03:51:11;5.20;99.90
21298;DHT22;10808;48.010;11.326;2024-02-21T03:53:37;5.20;99.90
21298;DHT22;10808;48.010;11.326;2024-02-21T03:56:04;5.20;99.90
21298;DHT22;10808;48.010;11.326;2024-02-21T03:58:30;5.20;99.90
21298;DHT22;10808;48.010;11.326;2024-02-21T04:00:56;5.20;99.90
21298;DHT22;10808;48.010;11.326;2024-02-21T04:03:22;5.20;99.90
21298;DHT22;10808;48.010;11.326;2024-02-21T04:05:48;5.20;99.90
21298;DHT22;10808;48.010;11.326;2024-02-21T04:08:14;5.20;99.90
21298;DHT22;10808;48.010;11.326;2024-02-21T04:10:40;5.20;99.90
21298;DHT22;10808;48.010;11.326;2024-02-21T04:13:07;5.20;99.90
21298;DHT22;10808;48.010;11.326;2024-02-21T04:15:33;5.20;99.90
21298;DHT22;10808;48.010;11.326;2024-02-21T04:17:59;5.30;99.90
21298;DHT22;10808;48.010;11.326;2024-02-21T04:20:25;5.30;99.90
21298;DHT22;10808;48.010;11.326;2024-02-21T04:22:51;5.30;99.90
21298;DHT22;10808;48.010;11.326;2024-02-21T04:25:18;5.30;99.90
21298;DHT22;10808;48.010;11.326;2024-02-21T04:27:45;5.30;99.90
21298;DHT22;10808;48.010;11.326;2024-02-21T04:30:11;5.30;99.90
21298;DHT22;10808;48.010;11.326;2024-02-21T04:32:37;5.30;99.90
21298;DHT22;10808;48.010;11.326;2024-02-21T04:35:03;5.30;99.90
21298;DHT22;10808;48.010;11.326;2024-02-21T04:37:30;5.30;99.90
21298;DHT22;10808;48.010;11.326;2024-02-21T04:39:56;5.30;99.90
21298;DHT22;10808;48.010;11.326;2024-02-21T04:42:23;5.20;99.90
21298;DHT22;10808;48.010;11.326;2024-02-21T04:44:49;5.20;99.90
21298;DHT22;10808;48.010;11.326;2024-02-21T04:47:15;5.20;99.90
21298;DHT22;10808;48.010;11.326;2024-02-21T04:49:41;5.20;99.90
21298;DHT22;10808;48.010;11.326;2024-02-21T04:52:07;5.20;99.90
21298;DHT22;10808;48.010;11.326;2024-02-21T04:54:33;5.10;99.90
21298;DHT22;10808;48.010;11.326;2024-02-21T04:57:01;5.10;99.90
21298;DHT22;10808;48.010;11.326;2024-02-21T04:59:27;5.10;99.90
21298;DHT22;10808;48.010;11.326;2024-02-21T05:01:53;5.10;99.90
21298;DHT22;10808;48.010;11.326;2024-02-21T05:04:19;5.10;99.90
21298;DHT22;10808;48.010;11.326;2024-02-21T05:06:45;5.00;99.90
21298;DHT22;10808;48.010;11.326;2024-02-21T05:09:11;5.00;99.90
21298;DHT22;10808;48.010;11.326;2024-02-21T05:11:37;5.00;99.90
21298;DHT22;10808;48.010;11.326;2024-02-21T05:14:04;4.90;99.90
21298;DHT22;10808;48.010;11.326;2024-02-21T05:16:31;4.90;99.90
21298;DHT22;10808;48.010;11.326;2024-02-21T05:18:57;4.90;99.90
21298;DHT22;10808;48.010;11.326;2024-02-21T05:21:23;4.90;99.90
21298;DHT22;10808;48.010;11.326;2024-02-21T05:23:50;4.90;99.90
21298;DHT22;10808;48.010;11.326;2024-02-21T05:26:21;4.80;99.90
21298;DHT22;10808;48.010;11.326;2024-02-21T05:28:47;4.70;99.90
21298;DHT22;10808;48.010;11.326;2024-02-21T05:31:13;4.70;99.90
21298;DHT22;10808;48.010;11.326;2024-02-21T05:33:40;4.70;99.90
21298;DHT22;10808;48.010;11.326;2024-02-21T05:36:06;4.50;99.90
21298;DHT22;10808;48.010;11.326;2024-02-21T05:38:32;4.50;99.90
21298;DHT22;10808;48.010;11.326;2024-02-21T05:40:58;4.50;99.90
21298;DHT22;10808;48.010;11.326;2024-02-21T05:43:24;4.40;99.90
21298;DHT22;10808;48.010;11.326;2024-02-21T05:45:50;4.30;99.90
21298;DHT22;10808;48.010;11.326;2024-02-21T05:48:16;4.30;99.90
21298;DHT22;10808;48.010;11.326;2024-02-21T05:50:42;4.20;99.90
21298;DHT22;10808;48.010;11.326;2024-02-21T05:53:08;4.20;99.90
21298;DHT22;10808;48.010;11.326;2024-02-21T05:55:35;4.10;99.90
21298;DHT22;10808;48.010;11.326;2024-02-21T05:58:02;4.00;99.90
21298;DHT22;10808;48.010;11.326;2024-02-21T06:00:28;4.00;99.90
21298;DHT22;10808;48.010;11.326;2024-02-21T06:02:55;3.90;99.90
21298;DHT22;10808;48.010;11.326;2024-02-21T06:05:21;3.90;99.90
21298;DHT22;10808;48.010;11.326;2024-02-21T06:07:47;3.90;99.90
21298;DHT22;10808;48.010;11.326;2024-02-21T06:10:13;3.90;99.90
21298;DHT22;10808;48.010;11.326;2024-02-21T06:12:39;3.80;99.90
21298;DHT22;10808;48.010;11.326;2024-02-21T06:15:06;3.80;99.90
21298;DHT22;10808;48.010;11.326;2024-02-21T06:17:32;3.80;99.90
21298;DHT22;10808;48.010;11.326;2024-02-21T06:19:58;3.90;99.90
21298;DHT22;10808;48.010;11.326;2024-02-21T06:22:24;3.90;99.90
21298;DHT22;10808;48.010;11.326;2024-02-21T06:24:50;3.80;99.90
21298;DHT22;10808;48.010;11.326;2024-02-21T06:27:16;3.80;99.90
21298;DHT22;10808;48.010;11.326;2024-02-21T06:29:43;3.90;99.90
21298;DHT22;10808;48.010;11.326;2024-02-21T06:32:09;3.90;99.90
21298;DHT22;10808;48.010;11.326;2024-02-21T06:34:35;3.90;99.90
21298;DHT22;10808;48.010;11.326;2024-02-21T06:37:01;3.90;99.90
21298;DHT22;10808;48.010;11.326;2024-02-21T06:39:27;3.90;99.90
21298;DHT22;10808;48.010;11.326;2024-02-21T06:41:57;3.90;99.90
21298;DHT22;10808;48.010;11.326;2024-02-21T06:44:23;3.90;99.90
21298;DHT22;10808;48.010;11.326;2024-02-21T06:46:49;4.00;99.90
21298;DHT22;10808;48.010;11.326;2024-02-21T06:49:15;4.00;99.90
21298;DHT22;10808;48.010;11.326;2024-02-21T06:51:45;4.00;99.90
21298;DHT22;10808;48.010;11.326;2024-02-21T06:54:11;4.00;99.90
21298;DHT22;10808;48.010;11.326;2024-02-21T06:56:37;4.10;99.90
21298;DHT22;10808;48.010;11.326;2024-02-21T06:59:04;4.10;99.90
21298;DHT22;10808;48.010;11.326;2024-02-21T07:01:30;4.20;99.90
21298;DHT22;10808;48.010;11.326;2024-02-21T07:03:56;4.10;99.90
21298;DHT22;10808;48.010;11.326;2024-02-21T07:06:22;4.10;99.90
21298;DHT22;10808;48.010;11.326;2024-02-21T07:08:48;4.10;99.90
21298;DHT22;10808;48.010;11.326;2024-02-21T07:11:15;4.10;99.90
21298;DHT22;10808;48.010;11.326;2024-02-21T07:13:41;4.20;99.90
21298;DHT22;10808;48.010;11.326;2024-02-21T07:16:07;4.30;99.90
21298;DHT22;10808;48.010;11.326;2024-02-21T07:18:34;4.30;99.90
21298;DHT22;10808;48.010;11.326;2024-02-21T07:21:00;4.40;99.90
21298;DHT22;10808;48.010;11.326;2024-02-21T07:23:26;4.50;99.90
21298;DHT22;10808;48.010;11.326;2024-02-21T07:25:52;4.50;99.90
21298;DHT22;10808;48.010;11.326;2024-02-21T07:28:18;4.60;99.90
21298;DHT22;10808;48.010;11.326;2024-02-21T07:30:44;4.70;99.90
21298;DHT22;10808;48.010;11.326;2024-02-21T07:33:10;4.70;99.90
21298;DHT22;10808;48.010;11.326;2024-02-21T07:35:36;4.80;99.90
21298;DHT22;10808;48.010;11.326;2024-02-21T07:38:04;4.90;99.90
21298;DHT22;10808;48.010;11.326;2024-02-21T07:40:31;5.00;99.90
21298;DHT22;10808;48.010;11.326;2024-02-21T07:42:57;5.00;99.90
21298;DHT22;10808;48.010;11.326;2024-02-21T07:45:23;5.00;99.90
21298;DHT22;10808;48.010;11.326;2024-02-21T07:47:50;5.00;99.90
21298;DHT22;10808;48.010;11.326;2024-02-21T07:50:16;5.00;99.90
21298;DHT22;10808;48.010;11.326;2024-02-21T07:52:43;5.10;99.90
21298;DHT22;10808;48.010;11.326;2024-02-21T07:55:09;5.10;99.90
21298;DHT22;10808;48.010;11.326;2024-02-21T07:57:36;5.10;99.90
21298;DHT22;10808;48.010;11.326;2024-02-21T08:00:03;5.10;99.90
21298;DHT22;10808;48.010;11.326;2024-02-21T08:02:34;5.10;99.90
21298;DHT22;10808;48.010;11.326;2024-02-21T08:05:00;5.20;99.90
21298;DHT22;10808;48.010;11.326;2024-02-21T08:07:26;5.20;99.90
21298;DHT22;10808;48.010;11.326;2024-02-21T08:09:54;5.30;99.90
21298;DHT22;10808;48.010;11.326;2024-02-21T08:12:20;5.30;99.90
21298;DHT22;10808;48.010;11.326;2024-02-21T08:14:46;5.40;99.90
21298;DHT22;10808;48.010;11.326;2024-02-21T08:17:12;5.50;99.90
21298;DHT22;10808;48.010;11.326;2024-02-21T08:19:38;5.60;99.90
21298;DHT22;10808;48.010;11.326;2024-02-21T08:22:04;5.70;99.90
21298;DHT22;10808;48.010;11.326;2024-02-21T08:24:30;5.70;99.90
21298;DHT22;10808;48.010;11.326;2024-02-21T08:26:57;5.90;99.90
21298;DHT22;10808;48.010;11.326;2024-02-21T08:29:23;6.00;99.90
21298;DHT22;10808;48.010;11.326;2024-02-21T08:31:49;6.10;99.90
21298;DHT22;10808;48.010;11.326;2024-02-21T08:34:15;6.20;99.90
21298;DHT22;10808;48.010;11.326;2024-02-21T08:36:41;6.30;99.90
21298;DHT22;10808;48.010;11.326;2024-02-21T08:39:07;6.40;99.90
21298;DHT22;10808;48.010;11.326;2024-02-21T08:41:35;6.60;99.90
21298;DHT22;10808;48.010;11.326;2024-02-21T08:44:01;6.70;99.90
21298;DHT22;10808;48.010;11.326;2024-02-21T08:46:27;6.90;99.90
21298;DHT22;10808;48.010;11.326;2024-02-21T08:48:54;7.00;99.90
21298;DHT22;10808;48.010;11.326;2024-02-21T08:51:20;7.10;99.90
21298;DHT22;10808;48.010;11.326;2024-02-21T08:53:47;7.20;99.90
21298;DHT22;10808;48.010;11.326;2024-02-21T08:56:13;7.30;99.90
21298;DHT22;10808;48.010;11.326;2024-02-21T08:58:40;7.40;99.90
21298;DHT22;10808;48.010;11.326;2024-02-21T09:01:07;7.60;99.90
21298;DHT22;10808;48.010;11.326;2024-02-21T09:03:36;7.80;99.90
21298;DHT22;10808;48.010;11.326;2024-02-21T09:06:06;7.90;99.90
21298;DHT22;10808;48.010;11.326;2024-02-21T09:08:32;8.10;99.90
21298;DHT22;10808;48.010;11.326;2024-02-21T09:11:00;8.30;99.90
21298;DHT22;10808;48.010;11.326;2024-02-21T09:13:26;8.50;99.70
21298;DHT22;10808;48.010;11.326;2024-02-21T09:15:55;8.70;99.50
21298;DHT22;10808;48.010;11.326;2024-02-21T09:18:21;8.90;98.90
21298;DHT22;10808;48.010;11.326;2024-02-21T09:20:47;9.10;99.10
21298;DHT22;10808;48.010;11.326;2024-02-21T09:23:13;9.30;98.30
21298;DHT22;10808;48.010;11.326;2024-02-21T09:25:39;9.50;98.20
21298;DHT22;10808;48.010;11.326;2024-02-21T09:28:06;9.70;97.90
21298;DHT22;10808;48.010;11.326;2024-02-21T09:30:32;9.90;97.30
21298;DHT22;10808;48.010;11.326;2024-02-21T09:32:58;10.20;97.50
21298;DHT22;10808;48.010;11.326;2024-02-21T09:35:25;10.50;96.90
21298;DHT22;10808;48.010;11.326;2024-02-21T09:37:53;10.70;96.70
21298;DHT22;10808;48.010;11.326;2024-02-21T09:40:22;10.90;95.90
21298;DHT22;10808;48.010;11.326;2024-02-21T09:42:48;11.20;95.60
21298;DHT22;10808;48.010;11.326;2024-02-21T09:45:22;11.40;96.00
21298;DHT22;10808;48.010;11.326;2024-02-21T09:50:38;12.10;94.90
21298;DHT22;10808;48.010;11.326;2024-02-21T09:53:07;12.50;94.30
21298;DHT22;10808;48.010;11.326;2024-02-21T09:55:33;12.80;93.40
21298;DHT22;10808;48.010;11.326;2024-02-21T09:58:04;13.10;94.20
21298;DHT22;10808;48.010;11.326;2024-02-21T10:00:33;13.40;93.40
21298;DHT22;10808;48.010;11.326;2024-02-21T10:02:59;13.60;93.70
21298;DHT22;10808;48.010;11.326;2024-02-21T10:05:25;14.00;93.90
21298;DHT22;10808;48.010;11.326;2024-02-21T10:07:54;14.30;92.80
21298;DHT22;10808;48.010;11.326;2024-02-21T10:10:21;14.50;92.00
21298;DHT22;10808;48.010;11.326;2024-02-21T10:12:49;14.70;91.70
21298;DHT22;10808;48.010;11.326;2024-02-21T10:15:20;14.70;91.30
21298;DHT22;10808;48.010;11.326;2024-02-21T10:17:47;15.10;91.40
21298;DHT22;10808;48.010;11.326;2024-02-21T10:20:13;15.30;90.50
21298;DHT22;10808;48.010;11.326;2024-02-21T10:22:41;15.30;88.80
21298;DHT22;10808;48.010;11.326;2024-02-21T10:25:11;15.20;88.90
21298;DHT22;10808;48.010;11.326;2024-02-21T10:27:37;15.40;90.90
21298;DHT22;10808;48.010;11.326;2024-02-21T10:30:06;15.70;89.40
21298;DHT22;10808;48.010;11.326;2024-02-21T10:32:33;16.00;88.00
21298;DHT22;10808;48.010;11.326;2024-02-21T10:35:05;16.20;90.10
21298;DHT22;10808;48.010;11.326;2024-02-21T10:37:31;16.40;88.80
21298;DHT22;10808;48.010;11.326;2024-02-21T10:40:00;16.50;87.70
21298;DHT22;10808;48.010;11.326;2024-02-21T10:42:31;16.80;88.30
21298;DHT22;10808;48.010;11.326;2024-02-21T10:45:01;17.20;87.70
21298;DHT22;10808;48.010;11.326;2024-02-21T10:47:32;17.20;84.30
21298;DHT22;10808;48.010;11.326;2024-02-21T10:50:03;17.30;84.70
21298;DHT22;10808;48.010;11.326;2024-02-21T10:52:55;17.40;80.20
21298;DHT22;10808;48.010;11.326;2024-02-21T10:55:33;17.40;85.50
21298;DHT22;10808;48.010;11.326;2024-02-21T10:58:01;17.50;82.30
21298;DHT22;10808;48.010;11.326;2024-02-21T11:00:29;17.50;79.30
21298;DHT22;10808;48.010;11.326;2024-02-21T11:02:59;17.80;84.90
21298;DHT22;10808;48.010;11.326;2024-02-21T11:05:25;18.20;82.20
21298;DHT22;10808;48.010;11.326;2024-02-21T11:07:53;18.30;75.70
21298;DHT22;10808;48.010;11.326;2024-02-21T11:10:23;18.10;74.50
21298;DHT22;10808;48.010;11.326;2024-02-21T11:13:05;17.70;71.70
21298;DHT22;10808;48.010;11.326;2024-02-21T11:15:32;17.50;72.30
21298;DHT22;10808;48.010;11.326;2024-02-21T11:17:58;17.40;73.00
21298;DHT22;10808;48.010;11.326;2024-02-21T11:20:34;17.50;77.00
21298;DHT22;10808;48.010;11.326;2024-02-21T11:23:01;17.60;73.10
21298;DHT22;10808;48.010;11.326;2024-02-21T11:25:28;17.60;72.30
21298;DHT22;10808;48.010;11.326;2024-02-21T11:28:04;17.70;74.40
21298;DHT22;10808;48.010;11.326;2024-02-21T11:30:31;17.50;70.90
21298;DHT22;10808;48.010;11.326;2024-02-21T11:33:03;17.70;73.20
21298;DHT22;10808;48.010;11.326;2024-02-21T11:35:36;17.80;74.70
21298;DHT22;10808;48.010;11.326;2024-02-21T11:38:09;18.00;72.80
21298;DHT22;10808;48.010;11.326;2024-02-21T11:40:38;17.80;70.30
21298;DHT22;10808;48.010;11.326;2024-02-21T11:43:06;18.00;72.70
21298;DHT22;10808;48.010;11.326;2024-02-21T11:45:32;18.00;73.20
21298;DHT22;10808;48.010;11.326;2024-02-21T11:47:59;18.00;70.00
21298;DHT22;10808;48.010;11.326;2024-02-21T11:50:31;17.80;68.10
21298;DHT22;10808;48.010;11.326;2024-02-21T11:52:58;17.50;66.90
21298;DHT22;10808;48.010;11.326;2024-02-21T11:55:24;17.40;69.00
21298;DHT22;10808;48.010;11.326;2024-02-21T11:57:51;17.40;69.10
21298;DHT22;10808;48.010;11.326;2024-02-21T12:00:18;17.40;68.70
21298;DHT22;10808;48.010;11.326;2024-02-21T12:02:48;17.20;66.70
21298;DHT22;10808;48.010;11.326;2024-02-21T12:05:16;17.20;70.20
21298;DHT22;10808;48.010;11.326;2024-02-21T12:07:42;17.30;67.50
21298;DHT22;10808;48.010;11.326;2024-02-21T12:10:13;17.20;65.40
21298;DHT22;10808;48.010;11.326;2024-02-21T12:12:40;17.00;66.40
21298;DHT22;10808;48.010;11.326;2024-02-21T12:15:07;17.00;66.50
21298;DHT22;10808;48.010;11.326;2024-02-21T12:17:34;16.80;66.50
21298;DHT22;10808;48.010;11.326;2024-02-21T12:20:03;16.70;65.80
21298;DHT22;10808;48.010;11.326;2024-02-21T12:22:31;16.60;65.70
21298;DHT22;10808;48.010;11.326;2024-02-21T12:25:36;16.60;66.90
21298;DHT22;10808;48.010;11.326;2024-02-21T12:27:55;16.60;70.80
21298;DHT22;10808;48.010;11.326;2024-02-21T12:30:22;16.60;66.90
21298;DHT22;10808;48.010;11.326;2024-02-21T12:32:48;16.50;65.30
21298;DHT22;10808;48.010;11.326;2024-02-21T12:35:14;16.40;68.50
21298;DHT22;10808;48.010;11.326;2024-02-21T12:37:40;16.50;67.40
21298;DHT22;10808;48.010;11.326;2024-02-21T12:40:08;16.40;65.90
21298;DHT22;10808;48.010;11.326;2024-02-21T12:42:34;16.30;65.50
21298;DHT22;10808;48.010;11.326;2024-02-21T12:45:02;16.30;69.10
21298;DHT22;10808;48.010;11.326;2024-02-21T12:47:29;16.30;66.40
21298;DHT22;10808;48.010;11.326;2024-02-21T12:49:56;16.20;68.30
21298;DHT22;10808;48.010;11.326;2024-02-21T12:52:22;16.10;66.50
21298;DHT22;10808;48.010;11.326;2024-02-21T12:54:48;16.10;66.10
21298;DHT22;10808;48.010;11.326;2024-02-21T12:57:14;16.10;70.60
21298;DHT22;10808;48.010;11.326;2024-02-21T12:59:40;16.20;67.40
21298;DHT22;10808;48.010;11.326;2024-02-21T13:02:07;16.10;66.40
21298;DHT22;10808;48.010;11.326;2024-02-21T13:04:34;16.00;68.00
21298;DHT22;10808;48.010;11.326;2024-02-21T13:07:00;16.00;72.90
21298;DHT22;10808;48.010;11.326;2024-02-21T13:09:29;16.20;70.50
21298;DHT22;10808;48.010;11.326;2024-02-21T13:11:55;16.30;67.40
21298;DHT22;10808;48.010;11.326;2024-02-21T13:14:21;16.30;69.00
21298;DHT22;10808;48.010;11.326;2024-02-21T13:16:48;16.40;69.30
21298;DHT22;10808;48.010;11.326;2024-02-21T13:19:15;16.40;68.50
21298;DHT22;10808;48.010;11.326;2024-02-21T13:21:43;16.60;68.30
21298;DHT22;10808;48.010;11.326;2024-02-21T13:24:09;16.60;67.40
21298;DHT22;10808;48.010;11.326;2024-02-21T13:26:35;16.70;66.20
21298;DHT22;10808;48.010;11.326;2024-02-21T13:29:01;16.60;66.70
21298;DHT22;10808;48.010;11.326;2024-02-21T13:31:27;16.40;67.50
21298;DHT22;10808;48.010;11.326;2024-02-21T13:33:53;16.40;67.10
21298;DHT22;10808;48.010;11.326;2024-02-21T13:36:19;16.40;65.90
21298;DHT22;10808;48.010;11.326;2024-02-21T13:38:45;16.30;67.60
21298;DHT22;10808;48.010;11.326;2024-02-21T13:41:12;16.40;67.10
21298;DHT22;10808;48.010;11.326;2024-02-21T13:43:38;16.50;67.00
21298;DHT22;10808;48.010;11.326;2024-02-21T13:46:04;16.60;66.40
21298;DHT22;10808;48.010;11.326;2024-02-21T13:48:35;16.60;65.30
21298;DHT22;10808;48.010;11.326;2024-02-21T13:51:01;16.70;66.80
21298;DHT22;10808;48.010;11.326;2024-02-21T13:53:30;16.70;66.10
21298;DHT22;10808;48.010;11.326;2024-02-21T13:55:56;16.90;66.60
21298;DHT22;10808;48.010;11.326;2024-02-21T13:58:22;16.90;66.00
21298;DHT22;10808;48.010;11.326;2024-02-21T14:00:49;17.10;67.70
21298;DHT22;10808;48.010;11.326;2024-02-21T14:03:15;17.20;64.10
21298;DHT22;10808;48.010;11.326;2024-02-21T14:05:41;17.30;67.50
21298;DHT22;10808;48.010;11.326;2024-02-21T14:08:08;17.60;66.90
21298;DHT22;10808;48.010;11.326;2024-02-21T14:10:34;17.70;64.60
21298;DHT22;10808;48.010;11.326;2024-02-21T14:13:01;17.80;66.50
21298;DHT22;10808;48.010;11.326;2024-02-21T14:15:27;18.00;64.20
21298;DHT22;10808;48.010;11.326;2024-02-21T14:17:53;18.20;65.70
21298;DHT22;10808;48.010;11.326;2024-02-21T14:20:19;18.40;63.90
21298;DHT22;10808;48.010;11.326;2024-02-21T14:22:45;18.70;65.50
21298;DHT22;10808;48.010;11.326;2024-02-21T14:25:11;18.70;63.80
21298;DHT22;10808;48.010;11.326;2024-02-21T14:27:38;18.90;67.40
21298;DHT22;10808;48.010;11.326;2024-02-21T14:30:04;19.00;65.40
21298;DHT22;10808;48.010;11.326;2024-02-21T14:32:30;19.10;64.60
21298;DHT22;10808;48.010;11.326;2024-02-21T14:34:57;19.20;66.00
21298;DHT22;10808;48.010;11.326;2024-02-21T14:37:23;19.20;64.20
21298;DHT22;10808;48.010;11.326;2024-02-21T14:39:49;19.10;65.20
21298;DHT22;10808;48.010;11.326;2024-02-21T14:42:15;19.10;63.30
21298;DHT22;10808;48.010;11.326;2024-02-21T14:44:41;19.00;64.10
21298;DHT22;10808;48.010;11.326;2024-02-21T14:47:07;18.90;64.80
21298;DHT22;10808;48.010;11.326;2024-02-21T14:49:33;18.90;63.30
21298;DHT22;10808;48.010;11.326;2024-02-21T14:51:59;18.70;62.90
21298;DHT22;10808;48.010;11.326;2024-02-21T14:54:25;18.60;64.80
21298;DHT22;10808;48.010;11.326;2024-02-21T14:56:51;18.60;66.90
21298;DHT22;10808;48.010;11.326;2024-02-21T14:59:17;18.50;66.00
21298;DHT22;10808;48.010;11.326;2024-02-21T15:01:44;18.40;64.10
21298;DHT22;10808;48.010;11.326;2024-02-21T15:04:10;18.20;64.40
21298;DHT22;10808;48.010;11.326;2024-02-21T15:06:36;18.10;67.30
21298;DHT22;10808;48.010;11.326;2024-02-21T15:09:03;17.80;63.40
21298;DHT22;10808;48.010;11.326;2024-02-21T15:11:30;17.70;65.60
21298;DHT22;10808;48.010;11.326;2024-02-21T15:13:56;17.60;68.50
21298;DHT22;10808;48.010;11.326;2024-02-21T15:16:22;17.60;69.50
21298;DHT22;10808;48.010;11.326;2024-02-21T15:18:48;17.50;71.50
21298;DHT22;10808;48.010;11.326;2024-02-21T15:21:14;17.60;72.90
21298;DHT22;10808;48.010;11.326;2024-02-21T15:23:41;17.60;71.60
21298;DHT22;10808;48.010;11.326;2024-02-21T15:26:07;17.40;71.80
21298;DHT22;10808;48.010;11.326;2024-02-21T15:28:33;17.30;73.10